• Join FlightAware (Why Join?)
  • Login
  • US Flag 
08:28PM EDT


 

Airport Tracker/Info


-or-


 

Live Flight TrackerFlight Track Log ✈ SKW5550 ✈ 16-Aug-2013 ✈ KCOD - KDEN

Flight Track Log - Related Links

Times and Time Zones

All times are in EDT time to prevent confusion due to time zone crossing. See the SKW5550 flight status page for this flight to view local times or setup timezone preferences in your user account.

Time Position Orientation Groundspeed Altitude Reporting Facility
EDT Latitude Longitude Course Direction KTS MPH feet Rate Location/Type
08:11AM 44.5411 -108.9914 142° Southeast 208 239 6,200  Level Salt Lake Center
08:12AM 43.7487 -108.4564 157° South  Level FlightAware Approximate
08:12AM 44.6050 -108.9678 15° North 207 238 8,600  Level Salt Lake Center
08:13AM 43.6517 -108.4008 157° South  Level FlightAware Approximate
08:13AM 44.6628 -108.9406 19° North 234 269 10,600  Level Salt Lake Center
08:14AM 43.5547 -108.3455 158° South  Level FlightAware Approximate
08:14AM 44.6222 -108.8722 130° Southeast 263 303 12,200  Level Salt Lake Center
08:15AM 43.4582 -108.2883 156° South  Level FlightAware Approximate
08:15AM 44.5422 -108.8575 173° South 280 322 13,400  Level Salt Lake Center
08:16AM 43.3748 -108.2011 142° Southeast  Level FlightAware Approximate
08:16AM 44.4528 -108.8383 171° South 304 350 14,300  Level Salt Lake Center
08:17AM 44.3572 -108.8136 170° South 333 383 15,500 1,320 Climbing Salt Lake Center
08:18AM 44.2606 -108.7594 158° South 366 421 17,000 1,140 Climbing Salt Lake Center
08:19AM 44.1636 -108.7031 157° South 375 432 17,800 1,080 Climbing Salt Lake Center
08:20AM 44.0639 -108.6444 157° South 385 443 19,200 1,380 Climbing Salt Lake Center
08:21AM 43.9631 -108.5864 157° South 392 451 20,700 1,260 Climbing Salt Lake Center
08:22AM 43.8650 -108.5300 157° South 385 443 21,800 960 Climbing Salt Lake Center
08:23AM 43.7650 -108.4733 158° South 388 447 22,700 780 Climbing Salt Lake Center
08:24AM 43.6617 -108.4150 158° South 400 460 23,400 660 Climbing Salt Lake Center
08:25AM 43.5567 -108.3567 158° South 406 467 24,100 660 Climbing Salt Lake Center
08:26AM 43.4508 -108.2942 157° South 413 475 24,800 660 Climbing Salt Lake Center
08:27AM 43.3567 -108.1875 141° Southeast 431 496 25,500 660 Climbing Salt Lake Center
08:28AM 43.2608 -108.0864 142° Southeast 436 502 26,200 720 Climbing Salt Lake Center
08:29AM 43.1664 -107.9844 142° Southeast 435 501 27,000 840 Climbing Salt Lake Center
08:30AM 43.0714 -107.8850 143° Southeast 433 498 28,000 840 Climbing Salt Lake Center
08:31AM 42.9786 -107.7939 144° Southeast 422 486 28,800 720 Climbing Salt Lake Center
08:32AM 42.8736 -107.6792 141° Southeast 424 488 29,500 660 Climbing Salt Lake Center
08:33AM 42.7822 -107.5825 142° Southeast 430 495 30,200 720 Climbing Salt Lake Center
08:34AM 42.6769 -107.4747 143° Southeast 426 490 31,000 360 Climbing Salt Lake Center
08:35AM 42.5864 -107.3817 143° Southeast 426 490 31,000  Level Salt Lake Center
08:36AM 42.4897 -107.2839 143° Southeast 445 512 31,000  Level Salt Lake Center
08:37AM 42.3928 -107.1844 143° Southeast 453 521 31,000  Level Salt Lake Center
08:38AM 42.2775 -107.0669 143° Southeast 463 533 31,000  Level Salt Lake Center
08:39AM 42.1781 -106.9664 143° Southeast 465 535 31,000  Level Salt Lake Center
08:40AM 42.0794 -106.8658 143° Southeast 464 534 31,000  Level Salt Lake Center
08:41AM 41.9628 -106.7489 143° Southeast 467 537 31,000  Level Salt Lake Center
08:42AM 41.8658 -106.6506 143° Southeast 469 540 31,000  Level Salt Lake Center
08:43AM 41.7500 -106.5353 143° Southeast 466 536 31,000  Level Salt Lake Center
08:44AM 41.6483 -106.4356 144° Southeast 471 542 31,000  Level Salt Lake Center
08:45AM 41.5492 -106.3372 143° Southeast 453 521 31,000  Level Salt Lake Center
08:47AM 41.4097 -106.2253 149° Southeast 427 491 31,000  Level Denver Center
08:48AM 41.3053 -106.1794 162° South 416 479 31,000  Level Denver Center
08:49AM 41.1986 -106.1350 163° South 419 482 31,000  Level Denver Center
08:50AM 41.0750 -106.0761 160° South 422 486 31,000  Level Denver Center
08:51AM 40.9669 -106.0119 156° South 430 495 31,000 -720 Level Denver Center
08:52AM 40.8694 -105.9189 144° Southeast 448 516 29,600 -1,860 Descending Denver Center
08:53AM 40.7947 -105.7844 126° Southeast 457 526 27,300 -2,280 Descending Denver Center
08:54AM 40.7256 -105.6581 126° Southeast 434 499 25,000 -2,280 Descending Denver Center
08:55AM 40.6581 -105.5397 127° Southeast 410 472 22,700 -2,280 Descending Denver Center
08:56AM 40.5944 -105.4244 126° Southeast 393 452 20,400 -2,040 Descending Denver Center
08:57AM 40.5353 -105.3139 125° Southeast 375 432 18,600 -1,680 Descending Denver Center
08:58AM 40.4789 -105.1842 120° Southeast 345 397 17,100 -1,380 Descending Denver Center
08:59AM 40.4461 -105.0731 111° Southeast 331 381 15,900 -1,080 Descending Denver Center
09:00AM 40.4153 -104.9675 111° Southeast 314 361 15,000 -840 Descending Denver Center
09:01AM 40.3867 -104.8653 110° East 300 345 14,300 -960 Descending Denver Center
09:02AM 40.3581 -104.7583 109° East 308 354 13,100 -660 Descending Denver Center
09:03AM 40.2867 -104.6914 144° Southeast 299 344 13,000 -600 Descending Denver Center
09:04AM 40.2072 -104.6817 175° South 282 325 11,900 -1,500 Descending Denver Center
09:05AM 40.1275 -104.6833 181° South 283 326 10,000 -1,140 Descending Denver Center
09:06AM 40.0558 -104.6850 181° South 246 283 9,600 -1,320 Descending Denver Center
09:07AM 39.9986 -104.6847 180° South 210 242 7,400 -1,620 Descending Denver Center
09:08AM 39.9475 -104.6861 181° South 168 193 6,400 -900 Descending Denver Center
09:09AM 39.9042 -104.6867 181° South 157 181 5,600 -540 Descending Denver Center
09:10AM 39.8794 -104.6867 180° South 120 138 5,400 -240 Descending Denver Center